sensor_id;sensor_type;location;lat;lon;timestamp;pressure;altitude;pressure_sealevel;temperature;humidity
14293;BME280;62290;59.420;17.842;2023-07-13T00:00:06;100204.63;;;27.33;43.19
14293;BME280;62290;59.420;17.842;2023-07-13T00:02:40;100195.84;;;27.31;43.13
14293;BME280;62290;59.420;17.842;2023-07-13T00:05:08;100201.09;;;27.33;43.24
14293;BME280;62290;59.420;17.842;2023-07-13T00:07:36;100201.94;;;27.33;42.92
14293;BME280;62290;59.420;17.842;2023-07-13T00:10:08;100199.41;;;27.32;42.84
14293;BME280;62290;59.420;17.842;2023-07-13T00:12:38;100195.84;;;27.31;43.10
14293;BME280;62290;59.420;17.842;2023-07-13T00:15:12;100202.94;;;27.32;42.98
14293;BME280;62290;59.420;17.842;2023-07-13T00:17:43;100193.66;;;27.27;42.69
14293;BME280;62290;59.420;17.842;2023-07-13T00:20:12;100202.44;;;27.29;42.74
14293;BME280;62290;59.420;17.842;2023-07-13T00:22:40;100200.75;;;27.28;43.08
14293;BME280;62290;59.420;17.842;2023-07-13T00:25:11;100206.34;;;27.26;42.63
14293;BME280;62290;59.420;17.842;2023-07-13T00:27:43;100203.97;;;27.23;42.71
14293;BME280;62290;59.420;17.842;2023-07-13T00:30:12;100207.69;;;27.22;42.49
14293;BME280;62290;59.420;17.842;2023-07-13T00:32:40;100201.78;;;27.19;42.56
14293;BME280;62290;59.420;17.842;2023-07-13T00:35:08;100194.66;;;27.18;42.70
14293;BME280;62290;59.420;17.842;2023-07-13T00:37:36;100194.00;;;27.16;42.51
14293;BME280;62290;59.420;17.842;2023-07-13T00:40:06;100202.25;;;27.14;42.46
14293;BME280;62290;59.420;17.842;2023-07-13T00:42:36;100191.63;;;27.13;42.67
14293;BME280;62290;59.420;17.842;2023-07-13T00:45:06;100192.47;;;27.13;42.80
14293;BME280;62290;59.420;17.842;2023-07-13T00:47:35;100193.66;;;27.11;42.74
14293;BME280;62290;59.420;17.842;2023-07-13T00:50:04;100192.81;;;27.10;42.71
14293;BME280;62290;59.420;17.842;2023-07-13T00:52:35;100195.69;;;27.09;42.54
14293;BME280;62290;59.420;17.842;2023-07-13T00:55:07;100168.13;;;26.89;42.79
14293;BME280;62290;59.420;17.842;2023-07-13T00:57:38;100201.44;;;27.06;42.35
14293;BME280;62290;59.420;17.842;2023-07-13T01:00:08;100199.75;;;27.05;42.66
14293;BME280;62290;59.420;17.842;2023-07-13T01:02:38;100201.59;;;27.04;42.53
14293;BME280;62290;59.420;17.842;2023-07-13T01:05:09;100199.06;;;27.03;42.66
14293;BME280;62290;59.420;17.842;2023-07-13T01:07:39;100206.34;;;27.02;42.28
14293;BME280;62290;59.420;17.842;2023-07-13T01:10:23;100203.81;;;27.01;42.43
14293;BME280;62290;59.420;17.842;2023-07-13T01:12:53;100206.66;;;26.99;42.56
14293;BME280;62290;59.420;17.842;2023-07-13T01:15:38;100206.00;;;26.97;42.70
14293;BME280;62290;59.420;17.842;2023-07-13T01:18:09;100209.69;;;26.96;42.45
14293;BME280;62290;59.420;17.842;2023-07-13T01:20:39;100199.91;;;26.95;42.49
14293;BME280;62290;59.420;17.842;2023-07-13T01:23:11;100201.09;;;26.92;42.60
14293;BME280;62290;59.420;17.842;2023-07-13T01:25:39;100206.31;;;26.94;42.70
14293;BME280;62290;59.420;17.842;2023-07-13T01:28:08;100210.06;;;26.93;42.39
14293;BME280;62290;59.420;17.842;2023-07-13T01:30:39;100210.22;;;26.91;42.61
14293;BME280;62290;59.420;17.842;2023-07-13T01:33:07;100204.31;;;26.88;42.24
14293;BME280;62290;59.420;17.842;2023-07-13T01:35:36;100215.81;;;26.90;42.42
14293;BME280;62290;59.420;17.842;2023-07-13T01:38:05;100209.72;;;26.88;42.31
14293;BME280;62290;59.420;17.842;2023-07-13T01:40:37;100210.53;;;26.88;42.33
14293;BME280;62290;59.420;17.842;2023-07-13T01:43:05;100210.88;;;26.85;42.45
14293;BME280;62290;59.420;17.842;2023-07-13T01:45:33;100220.00;;;26.84;42.66
14293;BME280;62290;59.420;17.842;2023-07-13T01:48:03;100213.75;;;26.84;42.58
14293;BME280;62290;59.420;17.842;2023-07-13T01:50:33;100229.97;;;26.84;42.59
14293;BME280;62290;59.420;17.842;2023-07-13T01:53:01;100230.16;;;26.82;42.07
14293;BME280;62290;59.420;17.842;2023-07-13T01:55:30;100223.22;;;26.80;42.28
14293;BME280;62290;59.420;17.842;2023-07-13T01:58:00;100226.59;;;26.82;42.19
14293;BME280;62290;59.420;17.842;2023-07-13T02:00:28;100222.38;;;26.79;42.33
14293;BME280;62290;59.420;17.842;2023-07-13T02:02:56;100218.81;;;26.79;42.43
14293;BME280;62290;59.420;17.842;2023-07-13T02:05:25;100230.78;;;26.76;42.43
14293;BME280;62290;59.420;17.842;2023-07-13T02:07:53;100224.50;;;26.76;42.51
14293;BME280;62290;59.420;17.842;2023-07-13T02:10:21;100225.56;;;26.75;42.45
14293;BME280;62290;59.420;17.842;2023-07-13T02:12:50;100215.91;;;26.72;42.24
14293;BME280;62290;59.420;17.842;2023-07-13T02:15:20;100220.28;;;26.73;42.55
14293;BME280;62290;59.420;17.842;2023-07-13T02:17:48;100226.56;;;26.74;42.62
14293;BME280;62290;59.420;17.842;2023-07-13T02:20:16;100219.44;;;26.73;42.55
14293;BME280;62290;59.420;17.842;2023-07-13T02:22:44;100225.88;;;26.72;42.56
14293;BME280;62290;59.420;17.842;2023-07-13T02:25:12;100223.16;;;26.72;42.53
14293;BME280;62290;59.420;17.842;2023-07-13T02:27:40;100226.88;;;26.71;42.55
14293;BME280;62290;59.420;17.842;2023-07-13T02:30:10;100227.72;;;26.71;42.53
14293;BME280;62290;59.420;17.842;2023-07-13T02:32:40;100228.72;;;26.70;42.36
14293;BME280;62290;59.420;17.842;2023-07-13T02:35:08;100221.97;;;26.66;42.63
14293;BME280;62290;59.420;17.842;2023-07-13T02:37:37;100228.91;;;26.69;42.26
14293;BME280;62290;59.420;17.842;2023-07-13T02:40:06;100231.75;;;26.67;42.46
14293;BME280;62290;59.420;17.842;2023-07-13T02:42:35;100229.06;;;26.67;42.00
14293;BME280;62290;59.420;17.842;2023-07-13T02:45:06;100223.66;;;26.67;42.41
14293;BME280;62290;59.420;17.842;2023-07-13T02:47:36;100235.50;;;26.66;42.43
14293;BME280;62290;59.420;17.842;2023-07-13T02:50:06;100236.50;;;26.65;41.96
14293;BME280;62290;59.420;17.842;2023-07-13T02:52:34;100239.19;;;26.65;42.39
14293;BME280;62290;59.420;17.842;2023-07-13T02:55:03;100232.78;;;26.66;42.42
14293;BME280;62290;59.420;17.842;2023-07-13T02:57:31;100226.72;;;26.64;42.37
14293;BME280;62290;59.420;17.842;2023-07-13T02:59:59;100240.22;;;26.64;42.19
14293;BME280;62290;59.420;17.842;2023-07-13T03:02:28;100237.53;;;26.64;42.26
14293;BME280;62290;59.420;17.842;2023-07-13T03:04:56;100245.44;;;26.66;41.98
14293;BME280;62290;59.420;17.842;2023-07-13T03:07:26;100253.56;;;26.66;42.31
14293;BME280;62290;59.420;17.842;2023-07-13T03:09:54;100249.84;;;26.67;41.87
14293;BME280;62290;59.420;17.842;2023-07-13T03:12:26;100251.72;;;26.66;42.10
14293;BME280;62290;59.420;17.842;2023-07-13T03:14:55;100249.84;;;26.67;42.16
14293;BME280;62290;59.420;17.842;2023-07-13T03:17:23;100247.81;;;26.69;42.32
14293;BME280;62290;59.420;17.842;2023-07-13T03:19:51;100244.09;;;26.70;42.07
14293;BME280;62290;59.420;17.842;2023-07-13T03:22:21;100252.91;;;26.72;41.86
14293;BME280;62290;59.420;17.842;2023-07-13T03:24:52;100254.56;;;26.73;42.16
14293;BME280;62290;59.420;17.842;2023-07-13T03:27:22;100118.22;;;25.93;41.87
14293;BME280;62290;59.420;17.842;2023-07-13T03:29:50;100254.25;;;26.76;41.96
14293;BME280;62290;59.420;17.842;2023-07-13T03:32:18;100261.41;;;26.77;42.16
14293;BME280;62290;59.420;17.842;2023-07-13T03:34:46;100258.50;;;26.78;41.92
14293;BME280;62290;59.420;17.842;2023-07-13T03:37:15;100261.22;;;26.78;42.02
14293;BME280;62290;59.420;17.842;2023-07-13T03:39:43;100266.31;;;26.81;42.14
14293;BME280;62290;59.420;17.842;2023-07-13T03:42:13;100269.84;;;26.82;42.18
14293;BME280;62290;59.420;17.842;2023-07-13T03:44:41;100251.06;;;26.72;42.35
14293;BME280;62290;59.420;17.842;2023-07-13T03:47:12;100270.72;;;26.82;41.80
14293;BME280;62290;59.420;17.842;2023-07-13T03:49:40;100263.28;;;26.84;42.27
14293;BME280;62290;59.420;17.842;2023-07-13T03:52:08;100266.97;;;26.83;41.95
14293;BME280;62290;59.420;17.842;2023-07-13T03:54:36;100275.09;;;26.83;42.05
14293;BME280;62290;59.420;17.842;2023-07-13T03:57:06;100266.97;;;26.83;42.16
14293;BME280;62290;59.420;17.842;2023-07-13T03:59:37;100264.44;;;26.82;42.22
14293;BME280;62290;59.420;17.842;2023-07-13T04:02:07;100273.22;;;26.84;41.67
14293;BME280;62290;59.420;17.842;2023-07-13T04:04:35;100280.34;;;26.85;42.07
14293;BME280;62290;59.420;17.842;2023-07-13T04:07:07;100249.69;;;26.68;41.90
14293;BME280;62290;59.420;17.842;2023-07-13T04:09:39;100272.91;;;26.87;41.92
14293;BME280;62290;59.420;17.842;2023-07-13T04:12:09;100282.53;;;26.89;41.68
14293;BME280;62290;59.420;17.842;2023-07-13T04:14:38;100283.06;;;26.93;41.67
14293;BME280;62290;59.420;17.842;2023-07-13T04:17:07;100284.59;;;26.95;41.47
14293;BME280;62290;59.420;17.842;2023-07-13T04:19:35;100284.41;;;26.97;41.46
14293;BME280;62290;59.420;17.842;2023-07-13T04:22:03;100289.31;;;27.02;41.14
14293;BME280;62290;59.420;17.842;2023-07-13T04:24:32;100291.69;;;27.05;41.15
14293;BME280;62290;59.420;17.842;2023-07-13T04:27:00;100285.09;;;27.07;41.18
14293;BME280;62290;59.420;17.842;2023-07-13T04:29:29;100281.22;;;27.10;41.08
14293;BME280;62290;59.420;17.842;2023-07-13T04:31:59;100293.22;;;27.15;41.00
14293;BME280;62290;59.420;17.842;2023-07-13T04:34:27;100293.91;;;27.17;40.81
14293;BME280;62290;59.420;17.842;2023-07-13T04:36:55;100283.59;;;27.21;40.74
14293;BME280;62290;59.420;17.842;2023-07-13T04:39:23;100313.19;;;27.22;40.71
14293;BME280;62290;59.420;17.842;2023-07-13T04:41:51;100303.88;;;27.25;40.79
14293;BME280;62290;59.420;17.842;2023-07-13T04:44:19;100301.38;;;27.23;40.55
14293;BME280;62290;59.420;17.842;2023-07-13T04:46:47;100302.03;;;27.25;40.61
14293;BME280;62290;59.420;17.842;2023-07-13T04:49:17;100276.66;;;27.10;40.35
14293;BME280;62290;59.420;17.842;2023-07-13T04:51:45;100311.19;;;27.24;40.29
14293;BME280;62290;59.420;17.842;2023-07-13T04:54:13;100309.16;;;27.26;40.49
14293;BME280;62290;59.420;17.842;2023-07-13T04:56:41;100309.16;;;27.26;40.41
14293;BME280;62290;59.420;17.842;2023-07-13T04:59:09;100314.22;;;27.29;40.37
14293;BME280;62290;59.420;17.842;2023-07-13T05:01:37;100303.03;;;27.32;40.31
14293;BME280;62290;59.420;17.842;2023-07-13T05:04:06;100296.97;;;27.30;40.52
14293;BME280;62290;59.420;17.842;2023-07-13T05:06:35;100299.56;;;27.40;39.97
14293;BME280;62290;59.420;17.842;2023-07-13T05:09:03;100298.38;;;27.42;39.90
14293;BME280;62290;59.420;17.842;2023-07-13T05:11:32;100302.75;;;27.43;39.91
14293;BME280;62290;59.420;17.842;2023-07-13T05:14:00;100306.13;;;27.45;39.85
14293;BME280;62290;59.420;17.842;2023-07-13T05:16:28;100306.97;;;27.46;39.98
14293;BME280;62290;59.420;17.842;2023-07-13T05:18:57;100308.03;;;27.45;39.72
14293;BME280;62290;59.420;17.842;2023-07-13T05:21:25;100318.00;;;27.52;39.72
14293;BME280;62290;59.420;17.842;2023-07-13T05:23:54;100314.97;;;27.55;39.37
14293;BME280;62290;59.420;17.842;2023-07-13T05:26:24;100322.22;;;27.55;39.13
14293;BME280;62290;59.420;17.842;2023-07-13T05:28:52;100326.59;;;27.56;39.15
14293;BME280;62290;59.420;17.842;2023-07-13T05:31:20;100321.19;;;27.56;39.15
14293;BME280;62290;59.420;17.842;2023-07-13T05:33:48;100322.91;;;27.57;38.84
14293;BME280;62290;59.420;17.842;2023-07-13T05:36:16;100312.25;;;27.55;38.86
14293;BME280;62290;59.420;17.842;2023-07-13T05:38:44;100322.56;;;27.60;38.87
14293;BME280;62290;59.420;17.842;2023-07-13T05:41:14;100317.66;;;27.64;38.61
14293;BME280;62290;59.420;17.842;2023-07-13T05:43:42;100326.78;;;27.63;38.64
14293;BME280;62290;59.420;17.842;2023-07-13T05:46:10;100325.78;;;27.64;38.72
14293;BME280;62290;59.420;17.842;2023-07-13T05:48:38;100323.75;;;27.66;38.44
14293;BME280;62290;59.420;17.842;2023-07-13T05:51:06;100328.97;;;27.67;38.29
14293;BME280;62290;59.420;17.842;2023-07-13T05:53:34;100298.00;;;27.53;38.21
14293;BME280;62290;59.420;17.842;2023-07-13T05:56:02;100319.16;;;27.74;38.28
14293;BME280;62290;59.420;17.842;2023-07-13T05:58:32;100314.44;;;27.76;38.15
14293;BME280;62290;59.420;17.842;2023-07-13T06:01:02;100314.59;;;27.75;37.89
14293;BME280;62290;59.420;17.842;2023-07-13T06:03:32;100318.66;;;27.79;38.11
14293;BME280;62290;59.420;17.842;2023-07-13T06:06:00;100319.34;;;27.81;37.86
14293;BME280;62290;59.420;17.842;2023-07-13T06:08:29;100317.16;;;27.84;37.59
14293;BME280;62290;59.420;17.842;2023-07-13T06:11:02;100321.53;;;27.85;37.70
14293;BME280;62290;59.420;17.842;2023-07-13T06:13:32;100315.25;;;27.85;37.48
14293;BME280;62290;59.420;17.842;2023-07-13T06:16:02;100326.59;;;27.88;37.50
14293;BME280;62290;59.420;17.842;2023-07-13T06:18:32;100327.44;;;27.89;37.37
14293;BME280;62290;59.420;17.842;2023-07-13T06:21:00;100337.25;;;27.90;37.31
14293;BME280;62290;59.420;17.842;2023-07-13T06:23:28;100334.38;;;27.91;37.15
14293;BME280;62290;59.420;17.842;2023-07-13T06:25:56;100341.47;;;27.92;37.04
14293;BME280;62290;59.420;17.842;2023-07-13T06:28:24;100331.50;;;27.93;37.15
14293;BME280;62290;59.420;17.842;2023-07-13T06:30:53;100331.84;;;27.90;37.12
14293;BME280;62290;59.420;17.842;2023-07-13T06:33:21;100338.63;;;27.94;37.00
14293;BME280;62290;59.420;17.842;2023-07-13T06:35:49;100337.75;;;27.93;36.91
14293;BME280;62290;59.420;17.842;2023-07-13T06:38:17;100340.31;;;27.95;36.96
14293;BME280;62290;59.420;17.842;2023-07-13T06:40:45;100342.66;;;27.98;36.94
14293;BME280;62290;59.420;17.842;2023-07-13T06:43:13;100333.53;;;27.99;36.69
14293;BME280;62290;59.420;17.842;2023-07-13T06:45:43;100344.19;;;28.00;36.77
14293;BME280;62290;59.420;17.842;2023-07-13T06:48:15;100337.78;;;28.01;36.56
14293;BME280;62290;59.420;17.842;2023-07-13T06:50:44;100339.50;;;28.02;36.47
14293;BME280;62290;59.420;17.842;2023-07-13T06:53:15;100341.00;;;28.05;36.40
14293;BME280;62290;59.420;17.842;2023-07-13T06:55:43;100316.09;;;27.93;36.34
14293;BME280;62290;59.420;17.842;2023-07-13T06:58:12;100346.91;;;28.08;36.45
14293;BME280;62290;59.420;17.842;2023-07-13T07:00:41;100341.50;;;28.08;36.23
14293;BME280;62290;59.420;17.842;2023-07-13T07:03:09;100343.34;;;28.08;36.19
14293;BME280;62290;59.420;17.842;2023-07-13T07:05:38;100341.50;;;28.08;36.22
14293;BME280;62290;59.420;17.842;2023-07-13T07:08:06;100339.63;;;28.09;36.16
14293;BME280;62290;59.420;17.842;2023-07-13T07:10:35;100345.91;;;28.09;36.13
14293;BME280;62290;59.420;17.842;2023-07-13T07:13:03;100350.31;;;28.10;36.12
14293;BME280;62290;59.420;17.842;2023-07-13T07:15:32;100351.13;;;28.11;36.13
14293;BME280;62290;59.420;17.842;2023-07-13T07:18:00;100356.41;;;28.12;36.19
14293;BME280;62290;59.420;17.842;2023-07-13T07:20:28;100358.25;;;28.12;36.15
14293;BME280;62290;59.420;17.842;2023-07-13T07:22:58;100353.50;;;28.14;36.10
14293;BME280;62290;59.420;17.842;2023-07-13T07:25:27;100354.19;;;28.16;35.96
14293;BME280;62290;59.420;17.842;2023-07-13T07:27:58;100346.75;;;28.18;36.04
14293;BME280;62290;59.420;17.842;2023-07-13T07:30:29;100356.38;;;28.21;36.03
14293;BME280;62290;59.420;17.842;2023-07-13T07:33:00;100360.63;;;28.23;36.00
14293;BME280;62290;59.420;17.842;2023-07-13T07:35:31;100358.38;;;28.27;35.89
14293;BME280;62290;59.420;17.842;2023-07-13T07:38:07;100358.22;;;28.28;35.78
14293;BME280;62290;59.420;17.842;2023-07-13T07:40:36;100349.06;;;28.29;35.86
14293;BME280;62290;59.420;17.842;2023-07-13T07:43:08;100353.28;;;28.32;35.56
14293;BME280;62290;59.420;17.842;2023-07-13T07:45:36;100339.28;;;28.20;35.55
14293;BME280;62290;59.420;17.842;2023-07-13T07:48:05;100356.53;;;28.27;35.64
14293;BME280;62290;59.420;17.842;2023-07-13T07:50:34;100358.22;;;28.28;35.61
14293;BME280;62290;59.420;17.842;2023-07-13T07:53:02;100365.50;;;28.28;35.66
14293;BME280;62290;59.420;17.842;2023-07-13T07:55:35;100361.94;;;28.27;35.58
14293;BME280;62290;59.420;17.842;2023-07-13T07:58:06;100365.19;;;28.23;35.51
14293;BME280;62290;59.420;17.842;2023-07-13T08:01:02;100367.38;;;28.27;35.67
14293;BME280;62290;59.420;17.842;2023-07-13T08:03:33;100372.13;;;28.25;35.74
14293;BME280;62290;59.420;17.842;2023-07-13T08:06:04;100373.97;;;28.25;35.62
14293;BME280;62290;59.420;17.842;2023-07-13T08:08:35;100374.84;;;28.25;35.82
14293;BME280;62290;59.420;17.842;2023-07-13T08:11:06;100370.41;;;28.24;35.48
14293;BME280;62290;59.420;17.842;2023-07-13T08:13:37;100365.00;;;28.16;35.36
14293;BME280;62290;59.420;17.842;2023-07-13T08:16:06;100376.03;;;28.23;35.28
14293;BME280;62290;59.420;17.842;2023-07-13T08:18:34;100376.88;;;28.23;35.34
14293;BME280;62290;59.420;17.842;2023-07-13T08:21:06;100373.13;;;28.24;35.00
14293;BME280;62290;59.420;17.842;2023-07-13T08:23:35;100381.25;;;28.24;34.96
14293;BME280;62290;59.420;17.842;2023-07-13T08:26:04;100380.06;;;28.27;35.01
14293;BME280;62290;59.420;17.842;2023-07-13T08:28:33;100382.78;;;28.27;34.97
14293;BME280;62290;59.420;17.842;2023-07-13T08:31:02;100383.63;;;28.27;34.97
14293;BME280;62290;59.420;17.842;2023-07-13T08:33:30;100385.47;;;28.27;35.24
14293;BME280;62290;59.420;17.842;2023-07-13T08:35:58;100395.50;;;28.26;35.06
14293;BME280;62290;59.420;17.842;2023-07-13T08:38:27;100395.50;;;28.26;35.14
14293;BME280;62290;59.420;17.842;2023-07-13T08:40:56;100404.47;;;28.27;35.02
14293;BME280;62290;59.420;17.842;2023-07-13T08:43:28;100416.16;;;28.27;35.09
14293;BME280;62290;59.420;17.842;2023-07-13T08:46:02;100403.13;;;28.23;34.92
14293;BME280;62290;59.420;17.842;2023-07-13T08:48:36;100410.56;;;28.29;34.77
14293;BME280;62290;59.420;17.842;2023-07-13T08:51:13;100413.09;;;28.30;34.63
14293;BME280;62290;59.420;17.842;2023-07-13T08:53:48;100407.69;;;28.30;34.75
14293;BME280;62290;59.420;17.842;2023-07-13T08:56:20;100421.22;;;28.30;34.80
14293;BME280;62290;59.420;17.842;2023-07-13T08:58:54;100418.53;;;28.30;34.52
14293;BME280;62290;59.420;17.842;2023-07-13T09:01:29;100407.00;;;28.28;34.52
14293;BME280;62290;59.420;17.842;2023-07-13T09:04:04;100402.94;;;28.24;34.65
14293;BME280;62290;59.420;17.842;2023-07-13T09:06:43;100408.19;;;28.26;34.48
14293;BME280;62290;59.420;17.842;2023-07-13T09:09:39;100411.91;;;28.25;34.59
14293;BME280;62290;59.420;17.842;2023-07-13T09:12:14;100411.06;;;28.24;34.45
14293;BME280;62290;59.420;17.842;2023-07-13T09:14:47;100409.38;;;28.23;34.36
14293;BME280;62290;59.420;17.842;2023-07-13T09:17:19;100404.66;;;28.17;34.55
14293;BME280;62290;59.420;17.842;2023-07-13T09:19:56;100417.69;;;28.22;34.41
14293;BME280;62290;59.420;17.842;2023-07-13T09:22:28;100412.44;;;28.20;34.46
14293;BME280;62290;59.420;17.842;2023-07-13T09:25:02;100417.84;;;28.20;34.26
14293;BME280;62290;59.420;17.842;2023-07-13T09:27:38;100419.91;;;28.18;34.50
14293;BME280;62290;59.420;17.842;2023-07-13T09:30:23;100413.78;;;28.16;34.41
14293;BME280;62290;59.420;17.842;2023-07-13T09:32:53;100417.53;;;28.15;34.23
14293;BME280;62290;59.420;17.842;2023-07-13T09:35:25;100415.66;;;28.15;34.08
14293;BME280;62290;59.420;17.842;2023-07-13T09:37:58;100408.53;;;28.14;34.14
14293;BME280;62290;59.420;17.842;2023-07-13T09:40:36;100410.41;;;28.14;34.17
14293;BME280;62290;59.420;17.842;2023-07-13T09:43:08;100419.91;;;28.18;34.18
14293;BME280;62290;59.420;17.842;2023-07-13T09:45:40;100412.44;;;28.20;34.22
14293;BME280;62290;59.420;17.842;2023-07-13T09:48:12;100413.28;;;28.21;34.07
14293;BME280;62290;59.420;17.842;2023-07-13T09:50:41;100404.31;;;28.20;34.16
14293;BME280;62290;59.420;17.842;2023-07-13T09:53:13;100395.31;;;28.20;33.62
14293;BME280;62290;59.420;17.842;2023-07-13T09:55:44;100403.13;;;28.23;33.85
14293;BME280;62290;59.420;17.842;2023-07-13T09:58:18;100400.06;;;28.26;33.94
14293;BME280;62290;59.420;17.842;2023-07-13T10:00:58;100399.88;;;28.27;33.72
14293;BME280;62290;59.420;17.842;2023-07-13T10:03:29;100409.06;;;28.26;33.76
14293;BME280;62290;59.420;17.842;2023-07-13T10:06:09;100404.31;;;28.28;33.80
14293;BME280;62290;59.420;17.842;2023-07-13T10:08:39;100404.31;;;28.28;33.67
14293;BME280;62290;59.420;17.842;2023-07-13T10:11:10;100364.69;;;28.03;33.78
14293;BME280;62290;59.420;17.842;2023-07-13T10:13:42;100403.09;;;28.31;33.75
14293;BME280;62290;59.420;17.842;2023-07-13T10:16:13;100413.09;;;28.30;33.86
14293;BME280;62290;59.420;17.842;2023-07-13T10:18:46;100410.38;;;28.30;33.77
14293;BME280;62290;59.420;17.842;2023-07-13T10:21:17;100409.38;;;28.31;34.06
14293;BME280;62290;59.420;17.842;2023-07-13T10:24:06;100412.91;;;28.32;33.89
14293;BME280;62290;59.420;17.842;2023-07-13T10:26:41;100400.56;;;28.29;34.11
14293;BME280;62290;59.420;17.842;2023-07-13T10:29:12;100411.06;;;28.32;34.15
14293;BME280;62290;59.420;17.842;2023-07-13T10:31:45;100415.13;;;28.36;34.03
14293;BME280;62290;59.420;17.842;2023-07-13T10:34:13;100413.44;;;28.35;34.36
14293;BME280;62290;59.420;17.842;2023-07-13T10:36:44;100404.28;;;28.36;33.91
14293;BME280;62290;59.420;17.842;2023-07-13T10:39:16;100414.94;;;28.38;33.70
14293;BME280;62290;59.420;17.842;2023-07-13T10:41:48;100412.41;;;28.36;33.60
14293;BME280;62290;59.420;17.842;2023-07-13T10:44:23;100406.16;;;28.36;33.37
14293;BME280;62290;59.420;17.842;2023-07-13T10:46:57;100408.84;;;28.36;33.65
14293;BME280;62290;59.420;17.842;2023-07-13T10:49:26;100403.25;;;28.29;33.59
14293;BME280;62290;59.420;17.842;2023-07-13T10:51:55;100411.72;;;28.34;33.71
14293;BME280;62290;59.420;17.842;2023-07-13T10:54:27;100415.94;;;28.37;33.39
14293;BME280;62290;59.420;17.842;2023-07-13T10:57:14;100384.69;;;28.18;33.51
14293;BME280;62290;59.420;17.842;2023-07-13T10:59:47;100404.63;;;28.33;33.58
14293;BME280;62290;59.420;17.842;2023-07-13T11:02:24;100404.09;;;28.38;33.48
14293;BME280;62290;59.420;17.842;2023-07-13T11:04:54;100380.78;;;28.21;33.39
14293;BME280;62290;59.420;17.842;2023-07-13T11:07:25;100399.53;;;28.38;33.38
14293;BME280;62290;59.420;17.842;2023-07-13T11:09:56;100407.66;;;28.38;33.37
14293;BME280;62290;59.420;17.842;2023-07-13T11:12:49;100402.25;;;28.38;33.41
14293;BME280;62290;59.420;17.842;2023-07-13T11:15:30;100421.03;;;28.40;33.42
14293;BME280;62290;59.420;17.842;2023-07-13T11:18:04;100409.38;;;28.39;33.69
14293;BME280;62290;59.420;17.842;2023-07-13T11:20:37;100406.66;;;28.39;33.52
14293;BME280;62290;59.420;17.842;2023-07-13T11:23:28;100414.59;;;28.41;33.51
14293;BME280;62290;59.420;17.842;2023-07-13T11:25:57;100419.19;;;28.40;33.40
14293;BME280;62290;59.420;17.842;2023-07-13T11:28:30;100409.38;;;28.39;33.60
14293;BME280;62290;59.420;17.842;2023-07-13T11:31:13;100404.78;;;28.40;33.35
14293;BME280;62290;59.420;17.842;2023-07-13T11:33:56;100408.34;;;28.40;33.23
14293;BME280;62290;59.420;17.842;2023-07-13T11:36:30;100402.25;;;28.38;33.30
14293;BME280;62290;59.420;17.842;2023-07-13T11:39:03;100399.34;;;28.40;33.16
14293;BME280;62290;59.420;17.842;2023-07-13T11:41:35;100404.97;;;28.38;33.28
14293;BME280;62290;59.420;17.842;2023-07-13T11:44:17;100400.38;;;28.39;33.30
14293;BME280;62290;59.420;17.842;2023-07-13T11:46:47;100417.84;;;28.36;33.16
14293;BME280;62290;59.420;17.842;2023-07-13T11:49:22;100406.16;;;28.36;33.01
14293;BME280;62290;59.420;17.842;2023-07-13T11:51:51;100408.00;;;28.35;33.01
14293;BME280;62290;59.420;17.842;2023-07-13T11:54:27;100408.00;;;28.35;32.95
14293;BME280;62290;59.420;17.842;2023-07-13T11:56:59;100402.59;;;28.35;32.82
14293;BME280;62290;59.420;17.842;2023-07-13T11:59:30;100397.50;;;28.32;33.26
14293;BME280;62290;59.420;17.842;2023-07-13T12:02:00;100390.41;;;28.31;32.99
14293;BME280;62290;59.420;17.842;2023-07-13T12:04:32;100370.63;;;28.14;33.14
14293;BME280;62290;59.420;17.842;2023-07-13T12:07:07;100393.13;;;28.31;33.27
14293;BME280;62290;59.420;17.842;2023-07-13T12:09:36;100396.84;;;28.30;33.57
14293;BME280;62290;59.420;17.842;2023-07-13T12:12:10;100394.97;;;28.31;33.42
14293;BME280;62290;59.420;17.842;2023-07-13T12:14:39;100396.84;;;28.30;33.35
14293;BME280;62290;59.420;17.842;2023-07-13T12:17:15;100392.44;;;28.29;33.39
14293;BME280;62290;59.420;17.842;2023-07-13T12:19:45;100384.66;;;28.26;33.54
14293;BME280;62290;59.420;17.842;2023-07-13T12:22:16;100390.91;;;28.27;33.44
14293;BME280;62290;59.420;17.842;2023-07-13T12:24:45;100397.38;;;28.26;33.59
14293;BME280;62290;59.420;17.842;2023-07-13T12:27:19;100400.94;;;28.26;33.51
14293;BME280;62290;59.420;17.842;2023-07-13T12:29:52;100399.03;;;28.27;33.38
14293;BME280;62290;59.420;17.842;2023-07-13T12:32:21;100396.50;;;28.25;33.29
14293;BME280;62290;59.420;17.842;2023-07-13T12:34:54;100396.50;;;28.25;32.83
14293;BME280;62290;59.420;17.842;2023-07-13T12:37:23;100401.94;;;28.25;33.27
14293;BME280;62290;59.420;17.842;2023-07-13T12:39:52;100401.94;;;28.25;33.56
14293;BME280;62290;59.420;17.842;2023-07-13T12:42:21;100407.16;;;28.27;33.26
14293;BME280;62290;59.420;17.842;2023-07-13T12:44:53;100395.66;;;28.25;33.31
14293;BME280;62290;59.420;17.842;2023-07-13T12:47:23;100399.22;;;28.25;33.24
14293;BME280;62290;59.420;17.842;2023-07-13T12:49:57;100396.50;;;28.25;33.28
14293;BME280;62290;59.420;17.842;2023-07-13T12:52:29;100395.66;;;28.25;33.16
14293;BME280;62290;59.420;17.842;2023-07-13T12:55:06;100393.13;;;28.23;33.45
14293;BME280;62290;59.420;17.842;2023-07-13T12:57:43;100396.00;;;28.22;33.60